createdAt,value
2023-03-17T00:01:44.802Z,5.60
2023-03-17T00:04:14.009Z,6.50
2023-03-17T00:06:53.336Z,6.50
2023-03-17T00:09:30.229Z,5.63
2023-03-17T00:12:08.726Z,6.07
2023-03-17T00:14:41.795Z,5.50
2023-03-17T00:17:15.255Z,5.63
2023-03-17T00:19:45.556Z,6.32
2023-03-17T00:22:17.989Z,6.30
2023-03-17T00:24:44.611Z,5.82
2023-03-17T00:27:14.075Z,6.28
2023-03-17T00:29:45.372Z,6.32
2023-03-17T00:32:18.954Z,5.78
2023-03-17T00:34:45.366Z,6.30
2023-03-17T00:37:12.743Z,5.32
2023-03-17T00:39:39.948Z,5.70
2023-03-17T00:42:07.048Z,6.07
2023-03-17T00:44:34.603Z,5.57
2023-03-17T00:47:01.860Z,6.07
2023-03-17T00:49:28.814Z,5.63
2023-03-17T00:51:55.306Z,5.97
2023-03-17T00:54:21.770Z,6.07
2023-03-17T00:56:49.412Z,6.05
2023-03-17T00:59:39.028Z,5.53
2023-03-17T01:02:05.520Z,5.43
2023-03-17T01:04:32.248Z,5.53
2023-03-17T01:06:59.311Z,6.13
2023-03-17T01:09:26.950Z,6.25
2023-03-17T01:11:54.864Z,5.72
2023-03-17T01:14:22.702Z,5.53
2023-03-17T01:16:49.172Z,6.65
2023-03-17T01:19:17.101Z,6.00
2023-03-17T01:21:43.514Z,5.75
2023-03-17T01:24:10.145Z,5.90
2023-03-17T01:26:36.749Z,5.85
2023-03-17T01:29:04.760Z,6.57
2023-03-17T01:31:31.537Z,6.13
2023-03-17T01:33:57.916Z,5.97
2023-03-17T01:36:24.373Z,6.22
2023-03-17T01:38:50.919Z,6.28
2023-03-17T01:41:18.879Z,5.82
2023-03-17T01:43:45.305Z,5.95
2023-03-17T01:46:30.410Z,6.38
2023-03-17T01:49:15.406Z,5.90
2023-03-17T01:51:51.241Z,5.95
2023-03-17T01:54:23.226Z,5.72
2023-03-17T01:56:51.954Z,5.18
2023-03-17T01:59:24.267Z,6.20
2023-03-17T02:01:53.312Z,5.78
2023-03-17T02:04:20.833Z,6.10
2023-03-17T02:06:58.617Z,5.85
2023-03-17T02:09:26.792Z,5.50
2023-03-17T02:11:53.518Z,5.82
2023-03-17T02:14:20.356Z,6.28
2023-03-17T02:16:46.825Z,5.18
2023-03-17T02:19:13.505Z,6.00
2023-03-17T02:21:47.769Z,5.75
2023-03-17T02:24:32.481Z,5.22
2023-03-17T02:27:05.531Z,5.70
2023-03-17T02:29:34.919Z,5.80
2023-03-17T02:32:02.262Z,5.90
2023-03-17T02:34:29.374Z,5.28
2023-03-17T02:36:56.135Z,4.70
2023-03-17T02:39:22.667Z,5.45
2023-03-17T02:41:49.006Z,5.47
2023-03-17T02:44:15.815Z,5.60
2023-03-17T02:46:42.440Z,5.57
2023-03-17T02:49:09.756Z,5.20
2023-03-17T02:51:36.562Z,5.38
2023-03-17T02:54:02.970Z,5.82
2023-03-17T02:56:31.004Z,5.00
2023-03-17T02:58:57.438Z,5.85
2023-03-17T03:01:24.113Z,5.85
2023-03-17T03:03:50.648Z,6.00
2023-03-17T03:06:17.280Z,6.63
2023-03-17T03:08:43.779Z,5.30
2023-03-17T03:11:10.566Z,5.70
2023-03-17T03:13:37.577Z,6.03
2023-03-17T03:16:04.645Z,5.85
2023-03-17T03:18:31.312Z,5.60
2023-03-17T03:20:57.648Z,5.47
2023-03-17T03:23:24.151Z,5.50
2023-03-17T03:25:50.553Z,5.43
2023-03-17T03:28:16.905Z,5.30
2023-03-17T03:30:44.726Z,6.32
2023-03-17T03:33:12.868Z,4.80
2023-03-17T03:35:40.040Z,5.47
2023-03-17T03:38:07.229Z,6.05
2023-03-17T03:40:34.478Z,5.47
2023-03-17T03:43:07.516Z,5.43
2023-03-17T03:45:39.379Z,5.45
2023-03-17T03:48:05.973Z,5.95
2023-03-17T03:50:32.636Z,5.80
2023-03-17T03:52:59.140Z,5.47
2023-03-17T03:55:25.533Z,5.22
2023-03-17T03:57:51.901Z,6.30
2023-03-17T04:00:18.454Z,5.60
2023-03-17T04:02:46.431Z,6.15
2023-03-17T04:05:14.446Z,6.22
2023-03-17T04:07:41.788Z,6.22
2023-03-17T04:10:09.417Z,6.20
2023-03-17T04:12:35.835Z,5.88
2023-03-17T04:15:02.301Z,5.07
2023-03-17T04:17:28.676Z,5.65
2023-03-17T04:19:55.977Z,5.60
2023-03-17T04:22:22.895Z,5.60
2023-03-17T04:24:49.255Z,5.43
2023-03-17T04:27:15.594Z,5.35
2023-03-17T04:29:42.876Z,4.95
2023-03-17T04:32:11.458Z,5.28
2023-03-17T04:34:37.801Z,6.47
2023-03-17T04:37:04.262Z,5.57
2023-03-17T04:39:30.856Z,6.05
2023-03-17T04:41:57.211Z,5.32
2023-03-17T04:44:23.587Z,5.65
2023-03-17T04:46:50.021Z,5.35
2023-03-17T04:49:16.454Z,5.70
2023-03-17T04:51:42.833Z,5.53
2023-03-17T04:54:09.236Z,6.05
2023-03-17T04:56:36.112Z,5.78
2023-03-17T04:59:02.881Z,5.25
2023-03-17T05:01:29.234Z,5.30
2023-03-17T05:03:56.051Z,6.32
2023-03-17T05:06:22.419Z,5.85
2023-03-17T05:08:48.786Z,5.30
2023-03-17T05:11:15.645Z,5.45
2023-03-17T05:13:42.045Z,4.95
2023-03-17T05:16:09.063Z,4.78
2023-03-17T05:18:36.368Z,5.95
2023-03-17T05:21:03.701Z,5.35
2023-03-17T05:23:30.120Z,4.93
2023-03-17T05:25:56.432Z,5.28
2023-03-17T05:28:23.312Z,5.75
2023-03-17T05:30:50.028Z,5.53
2023-03-17T05:33:16.714Z,5.55
2023-03-17T05:35:43.535Z,5.03
2023-03-17T05:38:11.511Z,5.53
2023-03-17T05:40:38.212Z,5.43
2023-03-17T05:43:05.441Z,5.18
2023-03-17T05:45:31.871Z,5.40
2023-03-17T05:47:58.200Z,5.38
2023-03-17T05:50:25.109Z,5.63
2023-03-17T05:52:52.161Z,5.60
2023-03-17T05:55:19.149Z,5.25
2023-03-17T05:57:45.732Z,5.75
2023-03-17T06:00:13.484Z,5.40
2023-03-17T06:02:40.336Z,5.70
2023-03-17T06:05:08.385Z,5.55
2023-03-17T06:07:50.765Z,5.57
2023-03-17T06:10:18.398Z,5.50
2023-03-17T06:12:44.751Z,5.47
2023-03-17T06:15:11.152Z,5.03
2023-03-17T06:17:37.484Z,5.35
2023-03-17T06:20:05.287Z,5.35
2023-03-17T06:22:32.672Z,6.60
2023-03-17T06:24:59.351Z,6.22
2023-03-17T06:27:25.744Z,5.85
2023-03-17T06:29:52.130Z,6.80
2023-03-17T06:32:20.898Z,7.05
2023-03-17T06:34:48.049Z,6.80
2023-03-17T06:37:15.367Z,6.95
2023-03-17T06:39:42.177Z,6.97
2023-03-17T06:42:08.643Z,6.47
2023-03-17T06:44:36.242Z,6.50
2023-03-17T06:47:02.584Z,6.93
2023-03-17T06:49:28.912Z,7.20
2023-03-17T06:51:55.339Z,7.13
2023-03-17T06:54:24.490Z,6.68
2023-03-17T06:56:52.166Z,7.13
2023-03-17T06:59:19.735Z,8.00
2023-03-17T07:01:46.453Z,7.25
2023-03-17T07:04:12.840Z,7.28
2023-03-17T07:06:39.254Z,7.57
2023-03-17T07:09:07.342Z,7.68
2023-03-17T07:11:33.725Z,7.95
2023-03-17T07:14:00.515Z,7.05
2023-03-17T07:16:27.571Z,6.53
2023-03-17T07:18:53.968Z,7.05
2023-03-17T07:21:20.409Z,7.25
2023-03-17T07:23:46.761Z,6.75
2023-03-17T07:26:13.187Z,6.50
2023-03-17T07:28:40.325Z,7.05
2023-03-17T07:31:11.458Z,6.57
2023-03-17T07:33:37.929Z,7.07
2023-03-17T07:36:07.049Z,7.03
2023-03-17T07:38:34.080Z,6.95
2023-03-17T07:41:00.678Z,6.88
2023-03-17T07:43:27.096Z,6.13
2023-03-17T07:45:53.491Z,6.80
2023-03-17T07:48:19.854Z,7.63
2023-03-17T07:50:46.639Z,6.78
2023-03-17T07:53:13.328Z,7.47
2023-03-17T07:55:39.697Z,7.15
2023-03-17T07:58:06.205Z,6.85
2023-03-17T08:00:34.739Z,6.82
2023-03-17T08:03:09.791Z,7.07
2023-03-17T08:05:36.902Z,6.60
2023-03-17T08:08:05.136Z,7.45
2023-03-17T08:10:31.946Z,6.75
2023-03-17T08:12:58.646Z,7.15
2023-03-17T08:15:25.165Z,6.90
2023-03-17T08:17:51.554Z,7.03
2023-03-17T08:20:17.922Z,6.63
2023-03-17T08:22:44.338Z,6.93
2023-03-17T08:25:11.458Z,7.35
2023-03-17T08:27:38.453Z,6.78
2023-03-17T08:30:05.744Z,7.03
2023-03-17T08:32:32.127Z,6.18
2023-03-17T08:34:58.569Z,7.20
2023-03-17T08:37:24.915Z,6.50
2023-03-17T08:39:51.325Z,6.88
2023-03-17T08:42:17.674Z,6.80
2023-03-17T08:44:44.246Z,6.68
2023-03-17T08:47:10.849Z,6.20
2023-03-17T08:49:37.266Z,6.55
2023-03-17T08:52:04.041Z,7.45
2023-03-17T08:54:30.399Z,6.88
2023-03-17T08:56:58.283Z,6.95
2023-03-17T08:59:24.860Z,7.40
2023-03-17T09:01:51.335Z,6.65
2023-03-17T09:04:17.859Z,6.68
2023-03-17T09:07:01.727Z,6.22
2023-03-17T09:09:30.683Z,6.80
2023-03-17T09:11:57.044Z,6.07
2023-03-17T09:14:24.702Z,7.10
2023-03-17T09:16:51.212Z,7.60
2023-03-17T09:19:23.097Z,6.60
2023-03-17T09:21:52.570Z,6.57
2023-03-17T09:24:19.828Z,6.68
2023-03-17T09:26:46.354Z,6.88
2023-03-17T09:29:12.983Z,7.22
2023-03-17T09:31:39.461Z,6.75
2023-03-17T09:34:06.252Z,6.68
2023-03-17T09:36:33.077Z,7.00
2023-03-17T09:38:59.860Z,7.03
2023-03-17T09:41:57.190Z,7.10
2023-03-17T09:44:32.574Z,7.15
2023-03-17T09:47:13.973Z,7.43
2023-03-17T09:49:49.591Z,7.18
2023-03-17T09:52:18.599Z,7.57
2023-03-17T09:54:46.550Z,7.18
2023-03-17T09:57:17.323Z,6.55
2023-03-17T09:59:48.315Z,7.28
2023-03-17T10:02:33.460Z,6.45
2023-03-17T10:05:12.499Z,7.60
2023-03-17T10:07:43.084Z,6.53
2023-03-17T10:10:21.645Z,6.32
2023-03-17T10:13:04.111Z,7.78
2023-03-17T10:15:58.972Z,6.75
2023-03-17T10:20:56.773Z,7.15
2023-03-17T10:23:28.293Z,6.72
2023-03-17T10:25:56.728Z,6.65
2023-03-17T10:28:29.695Z,7.05
2023-03-17T10:31:02.989Z,7.25
2023-03-17T10:33:29.445Z,6.30
2023-03-17T10:35:56.480Z,6.63
2023-03-17T10:38:23.822Z,6.55
2023-03-17T10:40:58.337Z,7.00
2023-03-17T10:43:29.113Z,7.10
2023-03-17T10:46:04.449Z,7.15
2023-03-17T10:48:36.364Z,6.60
2023-03-17T10:51:07.800Z,7.22
2023-03-17T10:53:38.698Z,6.93
2023-03-17T10:56:10.318Z,7.22
2023-03-17T10:58:48.815Z,6.88
2023-03-17T11:01:22.707Z,6.28
2023-03-17T11:03:49.399Z,6.78
2023-03-17T11:06:20.875Z,6.47
2023-03-17T11:08:55.570Z,6.57
2023-03-17T11:11:36.307Z,6.60
2023-03-17T11:14:19.606Z,6.85
2023-03-17T11:17:28.914Z,6.90
2023-03-17T11:20:15.714Z,7.10
2023-03-17T11:22:46.526Z,7.05
2023-03-17T11:25:20.892Z,7.45
2023-03-17T11:27:53.897Z,6.60
2023-03-17T11:30:27.991Z,6.38
2023-03-17T11:33:25.480Z,6.53
2023-03-17T11:36:19.926Z,6.57
2023-03-17T11:39:05.629Z,7.95
2023-03-17T11:41:52.849Z,6.25
2023-03-17T11:45:00.671Z,7.10
2023-03-17T11:47:42.853Z,7.07
2023-03-17T11:50:31.173Z,6.30
2023-03-17T11:53:40.832Z,6.32
2023-03-17T11:56:14.253Z,6.53
2023-03-17T11:58:45.331Z,7.00
2023-03-17T12:01:18.135Z,6.00
2023-03-17T12:03:59.173Z,6.75
2023-03-17T12:06:31.750Z,6.22
2023-03-17T12:09:34.199Z,6.43
2023-03-17T12:12:01.877Z,5.72
2023-03-17T12:15:05.128Z,5.63
2023-03-17T12:17:44.790Z,6.60
2023-03-17T12:20:18.177Z,5.80
2023-03-17T12:22:48.377Z,6.37
2023-03-17T12:25:37.665Z,6.53
2023-03-17T12:28:15.814Z,6.18
2023-03-17T12:30:52.478Z,6.65
2023-03-17T12:33:33.770Z,6.07
2023-03-17T12:36:01.275Z,5.80
2023-03-17T12:38:47.231Z,5.85
2023-03-17T12:41:32.614Z,6.05
2023-03-17T12:44:07.820Z,6.43
2023-03-17T12:46:45.878Z,6.53
2023-03-17T12:49:46.027Z,6.47
2023-03-17T12:52:47.628Z,6.10
2023-03-17T12:55:16.725Z,6.25
2023-03-17T12:57:48.096Z,5.57
2023-03-17T13:00:29.475Z,6.53
2023-03-17T13:03:16.384Z,6.10
2023-03-17T13:05:48.056Z,5.82
2023-03-17T13:08:22.066Z,5.15
2023-03-17T13:10:49.036Z,6.15
2023-03-17T13:13:35.551Z,6.38
2023-03-17T13:16:06.016Z,6.90
2023-03-17T13:18:35.026Z,7.10
2023-03-17T13:21:01.327Z,7.05
2023-03-17T13:23:41.642Z,6.93
2023-03-17T13:26:11.774Z,7.18
2023-03-17T13:28:38.295Z,6.53
2023-03-17T13:31:13.050Z,6.93
2023-03-17T13:33:50.006Z,6.05
2023-03-17T13:36:33.471Z,6.60
2023-03-17T13:39:43.125Z,6.95
2023-03-17T13:42:23.592Z,6.55
2023-03-17T13:44:49.901Z,5.85
2023-03-17T13:47:27.256Z,6.18
2023-03-17T13:49:57.091Z,6.28
2023-03-17T13:52:31.158Z,5.72
2023-03-17T13:55:23.734Z,6.10
2023-03-17T13:58:10.889Z,6.38
2023-03-17T14:00:39.465Z,6.32
2023-03-17T14:03:37.821Z,6.03
2023-03-17T14:06:06.519Z,5.80
2023-03-17T14:08:35.524Z,5.85
2023-03-17T14:11:06.556Z,5.70
2023-03-17T14:13:43.492Z,6.22
2023-03-17T14:16:21.324Z,6.47
2023-03-17T14:18:50.316Z,5.60
2023-03-17T14:21:32.934Z,6.72
2023-03-17T14:24:02.003Z,6.07
2023-03-17T14:26:30.838Z,6.18
2023-03-17T14:29:01.350Z,6.85
2023-03-17T14:31:28.961Z,6.20
2023-03-17T14:33:57.764Z,6.68
2023-03-17T14:36:25.245Z,6.72
2023-03-17T14:38:54.094Z,6.70
2023-03-17T14:41:22.670Z,5.90
2023-03-17T14:43:51.249Z,6.57
2023-03-17T14:46:22.359Z,7.45
2023-03-17T14:48:51.855Z,7.00
2023-03-17T14:51:30.556Z,7.15
2023-03-17T14:54:00.501Z,7.30
2023-03-17T14:56:32.060Z,7.55
2023-03-17T14:59:06.372Z,6.85
2023-03-17T15:01:35.172Z,7.65
2023-03-17T15:04:14.038Z,7.47
2023-03-17T15:06:59.212Z,7.03
2023-03-17T15:09:31.881Z,6.40
2023-03-17T15:12:07.152Z,6.60
2023-03-17T15:14:35.592Z,6.53
2023-03-17T15:17:04.387Z,7.03
2023-03-17T15:19:38.808Z,7.43
2023-03-17T15:22:22.419Z,6.43
2023-03-17T15:25:04.251Z,6.40
2023-03-17T15:27:31.342Z,7.03
2023-03-17T15:29:58.157Z,6.10
2023-03-17T15:32:25.993Z,6.68
2023-03-17T15:34:54.558Z,6.85
2023-03-17T15:37:23.681Z,6.72
2023-03-17T15:39:51.329Z,6.07
2023-03-17T15:42:21.680Z,5.90
2023-03-17T15:44:48.067Z,6.82
2023-03-17T15:47:15.771Z,6.32
2023-03-17T15:49:43.897Z,5.88
2023-03-17T15:52:21.704Z,6.80
2023-03-17T15:54:48.745Z,5.78
2023-03-17T15:57:15.629Z,5.63
2023-03-17T15:59:42.053Z,6.32
2023-03-17T16:02:23.440Z,5.40
2023-03-17T16:04:49.840Z,5.85
2023-03-17T16:07:16.402Z,5.70
2023-03-17T16:09:42.854Z,7.05
2023-03-17T16:12:11.710Z,7.25
2023-03-17T16:14:38.410Z,6.88
2023-03-17T16:17:06.564Z,7.20
2023-03-17T16:19:33.682Z,7.20
2023-03-17T16:22:00.666Z,6.25
2023-03-17T16:24:27.417Z,6.13
2023-03-17T16:26:53.851Z,6.82
2023-03-17T16:29:21.102Z,7.60
2023-03-17T16:31:51.339Z,6.57
2023-03-17T16:34:22.829Z,6.70
2023-03-17T16:36:50.493Z,6.20
2023-03-17T16:39:19.490Z,6.60
2023-03-17T16:41:49.736Z,6.82
2023-03-17T16:44:18.710Z,6.63
2023-03-17T16:46:45.158Z,8.70
2023-03-17T16:49:16.169Z,12.45
2023-03-17T16:51:43.086Z,7.95
2023-03-17T16:54:10.541Z,7.72
2023-03-17T16:56:39.149Z,6.03
2023-03-17T16:59:09.762Z,5.32
2023-03-17T17:01:36.130Z,5.45
2023-03-17T17:04:02.875Z,4.22
2023-03-17T17:06:29.254Z,4.40
2023-03-17T17:08:55.707Z,3.95
2023-03-17T17:11:22.076Z,3.72
2023-03-17T17:13:48.939Z,3.80
2023-03-17T17:16:20.557Z,3.42
2023-03-17T17:18:47.193Z,3.75
2023-03-17T17:21:13.637Z,3.63
2023-03-17T17:23:40.049Z,3.80
2023-03-17T17:26:06.407Z,4.28
2023-03-17T17:28:32.995Z,5.28
2023-03-17T17:30:59.745Z,4.32
2023-03-17T17:33:26.242Z,5.53
2023-03-17T17:35:53.071Z,4.65
2023-03-17T17:38:22.998Z,3.40
2023-03-17T17:40:49.887Z,3.22
2023-03-17T17:43:18.110Z,3.20
2023-03-17T17:45:48.450Z,3.80
2023-03-17T17:48:16.834Z,3.63
2023-03-17T17:50:43.439Z,4.60
2023-03-17T17:53:12.191Z,4.50
2023-03-17T17:55:40.128Z,5.00
2023-03-17T17:58:06.814Z,4.28
2023-03-17T18:00:33.443Z,3.92
2023-03-17T18:02:59.893Z,4.18
2023-03-17T18:05:26.284Z,4.20
2023-03-17T18:07:52.598Z,3.15
2023-03-17T18:10:22.422Z,2.88
2023-03-17T18:12:49.357Z,2.80
2023-03-17T18:15:15.994Z,3.20
2023-03-17T18:17:43.446Z,2.50
2023-03-17T18:20:12.271Z,2.95
2023-03-17T18:22:40.156Z,2.78
2023-03-17T18:25:11.475Z,3.22
2023-03-17T18:27:38.624Z,3.28
2023-03-17T18:30:07.260Z,3.03
2023-03-17T18:32:33.849Z,2.85
2023-03-17T18:35:02.790Z,2.80
2023-03-17T18:37:30.727Z,2.78
2023-03-17T18:40:12.657Z,3.13
2023-03-17T18:42:40.952Z,2.80
2023-03-17T18:45:09.671Z,3.00
2023-03-17T18:47:37.610Z,2.97
2023-03-17T18:50:06.209Z,3.40
2023-03-17T18:52:34.252Z,3.30
2023-03-17T18:55:00.816Z,3.40
2023-03-17T18:57:27.778Z,3.47
2023-03-17T18:59:54.468Z,3.67
2023-03-17T19:02:21.102Z,3.80
2023-03-17T19:04:47.917Z,3.83
2023-03-17T19:07:16.351Z,4.50
2023-03-17T19:09:42.693Z,3.90
2023-03-17T19:12:09.742Z,4.10
2023-03-17T19:14:36.864Z,4.88
2023-03-17T19:17:04.132Z,4.88
2023-03-17T19:19:30.628Z,5.72
2023-03-17T19:21:57.005Z,6.20
2023-03-17T19:24:23.597Z,5.75
2023-03-17T19:26:50.172Z,5.47
2023-03-17T19:29:16.621Z,6.05
2023-03-17T19:31:43.512Z,6.28
2023-03-17T19:34:12.296Z,6.30
2023-03-17T19:36:39.730Z,7.18
2023-03-17T19:39:08.573Z,7.63
2023-03-17T19:41:35.047Z,8.38
2023-03-17T19:44:02.288Z,7.63
2023-03-17T19:46:29.414Z,9.63
2023-03-17T19:48:58.302Z,10.43
2023-03-17T19:51:26.145Z,10.32
2023-03-17T19:53:52.740Z,11.55
2023-03-17T19:56:19.606Z,11.25
2023-03-17T19:58:46.379Z,11.63
2023-03-17T20:01:13.567Z,9.38
2023-03-17T20:03:42.460Z,8.95
2023-03-17T20:06:09.996Z,8.77
2023-03-17T20:08:36.593Z,7.03
2023-03-17T20:11:04.331Z,6.50
2023-03-17T20:13:30.684Z,6.78
2023-03-17T20:15:57.303Z,6.65
2023-03-17T20:18:23.838Z,6.93
2023-03-17T20:20:54.139Z,6.78
2023-03-17T20:23:21.545Z,6.00
2023-03-17T20:25:49.323Z,8.95
2023-03-17T20:28:19.300Z,8.13
2023-03-17T20:30:46.109Z,7.82
2023-03-17T20:33:12.957Z,6.82
2023-03-17T20:35:41.892Z,6.43
2023-03-17T20:38:09.047Z,5.93
2023-03-17T20:40:35.776Z,6.38
2023-03-17T20:43:02.452Z,6.15
2023-03-17T20:45:29.334Z,6.55
2023-03-17T20:47:55.964Z,6.20
2023-03-17T20:50:22.786Z,5.47
2023-03-17T20:52:50.358Z,6.15
2023-03-17T20:55:17.170Z,6.03
2023-03-17T20:57:49.240Z,5.45
2023-03-17T21:00:18.476Z,6.53
2023-03-17T21:02:48.588Z,5.50
2023-03-17T21:05:20.088Z,6.03
2023-03-17T21:08:00.691Z,5.65
2023-03-17T21:10:27.097Z,5.57
2023-03-17T21:12:53.480Z,5.28
2023-03-17T21:15:19.850Z,5.38
2023-03-17T21:17:46.269Z,5.18
2023-03-17T21:20:12.914Z,5.32
2023-03-17T21:22:40.062Z,4.63
2023-03-17T21:25:08.607Z,5.13
2023-03-17T21:27:37.537Z,5.18
2023-03-17T21:30:06.597Z,5.47
2023-03-17T21:32:32.995Z,6.00
2023-03-17T21:34:59.336Z,5.30
2023-03-17T21:37:25.669Z,5.05
2023-03-17T21:39:52.102Z,6.25
2023-03-17T21:42:19.512Z,5.70
2023-03-17T21:44:48.125Z,6.80
2023-03-17T21:47:15.005Z,5.63
2023-03-17T21:49:41.386Z,6.60
2023-03-17T21:52:08.063Z,6.70
2023-03-17T21:54:36.370Z,6.03
2023-03-17T21:57:03.276Z,6.25
2023-03-17T21:59:32.338Z,5.88
2023-03-17T22:01:59.474Z,6.10
2023-03-17T22:04:25.967Z,6.78
2023-03-17T22:06:53.761Z,6.57
2023-03-17T22:09:20.780Z,5.57
2023-03-17T22:11:47.518Z,5.50
2023-03-17T22:14:17.281Z,6.35
2023-03-17T22:16:43.973Z,5.47
2023-03-17T22:19:14.429Z,5.75
2023-03-17T22:21:41.151Z,5.32
2023-03-17T22:24:07.751Z,5.65
2023-03-17T22:26:34.636Z,5.75
2023-03-17T22:29:01.520Z,5.82
2023-03-17T22:31:29.017Z,6.15
2023-03-17T22:33:57.831Z,5.97
2023-03-17T22:36:25.175Z,7.50
2023-03-17T22:38:51.855Z,7.13
2023-03-17T22:41:22.026Z,7.40
2023-03-17T22:43:48.530Z,7.82
2023-03-17T22:46:16.367Z,7.03
2023-03-17T22:48:43.600Z,7.75
2023-03-17T22:51:12.760Z,6.93
2023-03-17T22:53:43.044Z,6.93
2023-03-17T22:56:10.982Z,7.13
2023-03-17T22:58:38.167Z,7.57
2023-03-17T23:01:08.137Z,7.05
2023-03-17T23:03:35.179Z,6.20
2023-03-17T23:06:10.169Z,5.90
2023-03-17T23:08:38.505Z,6.03
2023-03-17T23:11:08.103Z,5.88
2023-03-17T23:13:35.810Z,5.35
2023-03-17T23:16:03.331Z,5.57
2023-03-17T23:18:29.931Z,4.85
2023-03-17T23:20:57.338Z,6.32
2023-03-17T23:23:23.885Z,5.10
2023-03-17T23:25:50.380Z,5.03
2023-03-17T23:28:19.058Z,5.60
2023-03-17T23:30:45.759Z,4.50
2023-03-17T23:33:12.325Z,4.60
2023-03-17T23:35:39.539Z,4.80
2023-03-17T23:38:06.006Z,4.35
2023-03-17T23:40:34.371Z,4.55
2023-03-17T23:43:01.836Z,4.57
2023-03-17T23:45:28.330Z,4.97
2023-03-17T23:47:55.970Z,4.68
2023-03-17T23:50:23.158Z,4.00
2023-03-17T23:52:49.707Z,4.88
2023-03-17T23:55:16.802Z,4.20
2023-03-17T23:57:44.213Z,4.43
